Time;durP1;ratioP1;P1;durP2;ratioP2;P2;SDS_P1;SDS_P2;PMS_P1;PMS_P2;Temp;Humidity;BMP_temperature;BMP_pressure;BME280_temperature;BME280_humidity;BME280_pressure;Samples;Min_cycle;Max_cycle;Signal;HPM_P1;HPM_P2
2021/12/18 00:00:13;;;;;;;29.48;16.40;;;;;;;5.96;100.00;101571.88;4976706;28;20054;-72
2021/12/18 00:03:00;;;;;;;23.63;14.43;;;;;;;6.04;100.00;101574.56;4975681;28;20114;-73
2021/12/18 00:05:45;;;;;;;20.98;12.93;;;;;;;5.85;100.00;101578.63;4975883;28;20322;-73
2021/12/18 00:08:31;;;;;;;19.70;12.10;;;;;;;5.90;100.00;101573.50;4975577;28;20552;-71
2021/12/18 00:11:17;;;;;;;32.40;18.55;;;;;;;6.09;100.00;101580.72;4975616;28;20026;-73
2021/12/18 00:14:03;;;;;;;19.10;10.88;;;;;;;5.69;100.00;101588.72;4975728;28;20366;-71
2021/12/18 00:16:49;;;;;;;45.08;25.20;;;;;;;5.48;100.00;101587.53;4975445;28;20135;-73
2021/12/18 00:19:34;;;;;;;16.83;11.27;;;;;;;5.82;100.00;101596.78;4975374;28;20034;-73
2021/12/18 00:22:20;;;;;;;18.23;11.45;;;;;;;5.94;100.00;101606.50;4976046;28;20027;-73
2021/12/18 00:25:07;;;;;;;46.45;24.75;;;;;;;5.67;100.00;101611.22;4975581;28;20456;-73
2021/12/18 00:27:52;;;;;;;45.83;23.05;;;;;;;5.39;100.00;101597.75;4975751;28;20030;-73
2021/12/18 00:30:38;;;;;;;24.73;14.57;;;;;;;5.62;100.00;101607.69;4975922;28;20400;-73
2021/12/18 00:33:24;;;;;;;19.70;11.93;;;;;;;5.78;100.00;101599.28;4975504;28;20019;-72
2021/12/18 00:36:10;;;;;;;18.50;12.18;;;;;;;5.85;100.00;101615.03;4975578;28;20031;-73
2021/12/18 00:38:56;;;;;;;16.55;10.93;;;;;;;5.87;100.00;101607.25;4975852;28;20026;-73
2021/12/18 00:44:30;;;;;;;18.08;11.95;;;;;;;6.12;100.00;101614.56;4975738;28;20108;-73
2021/12/18 00:47:16;;;;;;;18.10;11.55;;;;;;;6.08;100.00;101608.47;4975745;28;20458;-73
2021/12/18 00:50:04;;;;;;;15.52;10.95;;;;;;;6.05;100.00;101611.00;4975427;28;20032;-72
2021/12/18 00:52:50;;;;;;;20.70;12.23;;;;;;;6.10;100.00;101611.94;4975439;28;20041;-73
2021/12/18 00:55:37;;;;;;;17.58;11.63;;;;;;;5.55;100.00;101614.50;4975337;28;20031;-72
2021/12/18 00:58:23;;;;;;;17.15;10.70;;;;;;;5.41;100.00;101603.00;4975467;28;20040;-73
2021/12/18 01:01:10;;;;;;;15.32;9.82;;;;;;;5.53;100.00;101600.59;4978199;28;20023;-72
2021/12/18 01:03:56;;;;;;;17.73;11.73;;;;;;;5.87;100.00;101607.25;4977915;28;20077;-72
2021/12/18 01:06:42;;;;;;;15.90;9.80;;;;;;;5.85;100.00;101604.63;4978773;28;20031;-72
2021/12/18 01:09:53;;;;;;;18.02;11.15;;;;;;;5.94;100.00;101614.31;4978637;28;20031;-72
2021/12/18 01:12:39;;;;;;;13.88;9.85;;;;;;;6.29;100.00;101605.28;4979154;28;20085;-73
2021/12/18 01:15:35;;;;;;;17.00;10.88;;;;;;;6.22;100.00;101612.13;4978415;28;20361;-71
2021/12/18 01:24:31;;;;;;;15.85;10.50;;;;;;;5.76;100.00;101593.19;4978818;28;20056;-73
2021/12/18 01:27:18;;;;;;;17.73;11.20;;;;;;;6.01;100.00;101605.72;4978247;28;20039;-73
2021/12/18 01:30:08;;;;;;;17.40;11.38;;;;;;;5.68;100.00;101589.56;4978938;28;20029;-73
2021/12/18 01:32:55;;;;;;;19.15;12.35;;;;;;;5.77;100.00;101590.59;4978224;28;20085;-72
2021/12/18 01:35:42;;;;;;;17.38;11.82;;;;;;;5.75;100.00;101581.94;4978765;28;20042;-73
2021/12/18 01:38:30;;;;;;;16.23;11.18;;;;;;;5.85;100.00;101585.53;4964509;28;20519;-73
2021/12/18 01:41:17;;;;;;;19.00;12.80;;;;;;;5.93;100.00;101582.22;4978539;28;20100;-72
2021/12/18 01:51:16;;;;;;;16.50;10.50;;;;;;;5.73;100.00;101573.22;4978528;28;20030;-73
2021/12/18 01:53:19;;;;;;;16.13;10.48;;;;;;;6.17;100.00;101571.28;4978318;28;20106;-73
2021/12/18 01:56:05;;;;;;;16.73;10.57;;;;;;;6.08;100.00;101572.03;4977722;28;20456;-71
2021/12/18 01:58:52;;;;;;;14.70;10.55;;;;;;;6.10;100.00;101579.88;4978078;28;20109;-72
2021/12/18 02:01:38;;;;;;;15.48;10.50;;;;;;;5.91;100.00;101578.72;4963396;28;20463;-71
2021/12/18 02:04:24;;;;;;;17.15;11.52;;;;;;;5.55;100.00;101572.03;4978343;28;20121;-73
2021/12/18 02:07:10;;;;;;;17.75;10.93;;;;;;;5.81;100.00;101570.75;4977875;28;20035;-72
2021/12/18 02:13:37;;;;;;;16.63;10.77;;;;;;;5.97;100.00;101577.94;4977886;28;20545;-72
2021/12/18 02:22:03;;;;;;;16.23;10.45;;;;;;;6.29;100.00;101581.84;4978268;28;20094;-72
2021/12/18 02:24:49;;;;;;;17.10;10.73;;;;;;;5.96;100.00;101589.19;4977796;28;20058;-72
2021/12/18 02:27:34;;;;;;;19.45;11.77;;;;;;;5.71;100.00;101585.31;4977301;28;20583;-73
2021/12/18 02:30:21;;;;;;;17.73;11.57;;;;;;;5.76;100.00;101587.97;4977294;28;20031;-73
2021/12/18 02:33:07;;;;;;;18.25;11.88;;;;;;;5.82;100.00;101588.97;4977079;28;20053;-72
2021/12/18 02:35:56;;;;;;;16.23;11.40;;;;;;;6.14;100.00;101592.94;4977182;28;20035;-72
2021/12/18 02:41:41;;;;;;;19.35;11.85;;;;;;;6.27;100.00;101596.59;4978143;28;20050;-73
2021/12/18 02:44:27;;;;;;;17.50;11.27;;;;;;;5.72;100.00;101604.38;4976907;28;20038;-72
2021/12/18 02:47:14;;;;;;;18.67;12.00;;;;;;;5.93;100.00;101607.34;4977109;28;20023;-73
2021/12/18 02:49:59;;;;;;;18.65;12.50;;;;;;;6.11;100.00;101618.03;4977054;28;20030;-72
2021/12/18 02:52:45;;;;;;;18.42;11.63;;;;;;;6.19;100.00;101621.63;4977456;28;20110;-73
2021/12/18 02:55:31;;;;;;;17.13;11.32;;;;;;;5.96;100.00;101629.09;4976713;28;20026;-71
2021/12/18 02:58:17;;;;;;;17.60;11.57;;;;;;;5.99;100.00;101620.47;4977312;28;20041;-72
2021/12/18 03:01:04;;;;;;;20.55;13.10;;;;;;;6.10;100.00;101626.69;4976913;28;20023;-72
2021/12/18 03:03:52;;;;;;;18.55;11.30;;;;;;;5.79;100.00;101632.22;4976667;28;20053;-72
2021/12/18 03:06:39;;;;;;;22.52;13.88;;;;;;;6.03;100.00;101636.09;4976724;28;20093;-73
2021/12/18 03:24:29;;;;;;;23.25;14.70;;;;;;;5.69;100.00;101640.72;4977436;28;20030;-73
2021/12/18 03:27:16;;;;;;;25.67;15.25;;;;;;;5.46;100.00;101649.84;4976050;28;20037;-74
2021/12/18 03:30:04;;;;;;;25.40;15.80;;;;;;;5.34;100.00;101646.19;4976759;28;20031;-72
2021/12/18 03:32:50;;;;;;;23.88;14.70;;;;;;;5.35;100.00;101658.31;4962570;28;20070;-72
2021/12/18 03:35:36;;;;;;;24.35;14.50;;;;;;;5.18;100.00;101661.44;4976502;28;20030;-72
2021/12/18 03:38:22;;;;;;;26.75;16.20;;;;;;;5.48;100.00;101665.47;4975965;28;20026;-72
2021/12/18 03:41:07;;;;;;;24.63;16.38;;;;;;;5.18;100.00;101671.84;4976344;28;20038;-72
2021/12/18 03:43:53;;;;;;;32.45;19.27;;;;;;;4.76;100.00;101673.56;4976037;28;20364;-71
2021/12/18 03:46:39;;;;;;;32.67;18.27;;;;;;;4.81;100.00;101679.72;4976407;28;20026;-71
2021/12/18 03:49:25;;;;;;;31.85;18.83;;;;;;;5.51;100.00;101676.78;4962374;28;20044;-71
2021/12/18 03:52:11;;;;;;;33.05;19.48;;;;;;;5.63;100.00;101677.91;4976320;28;20097;-72
2021/12/18 03:55:01;;;;;;;32.92;18.95;;;;;;;5.50;100.00;101680.25;4976227;28;20372;-71
2021/12/18 03:57:47;;;;;;;32.03;19.95;;;;;;;5.79;100.00;101679.88;4975791;28;20027;-73
2021/12/18 04:00:33;;;;;;;32.42;19.65;;;;;;;5.70;100.00;101684.09;4976447;28;20471;-72
2021/12/18 04:03:19;;;;;;;29.33;18.65;;;;;;;5.58;100.00;101682.13;4976178;28;20046;-73
2021/12/18 04:06:04;;;;;;;30.25;18.58;;;;;;;5.92;100.00;101689.72;4976185;28;20098;-72
2021/12/18 04:08:50;;;;;;;34.65;21.45;;;;;;;5.43;100.00;101697.47;4962012;28;20339;-71
2021/12/18 04:11:36;;;;;;;37.53;21.58;;;;;;;5.66;100.00;101698.72;4976308;28;20169;-72
2021/12/18 04:14:22;;;;;;;37.78;22.17;;;;;;;5.75;100.00;101705.84;4975711;28;20080;-72
2021/12/18 04:17:07;;;;;;;33.17;20.00;;;;;;;6.04;100.00;101715.03;4975504;28;20051;-72
2021/12/18 04:19:53;;;;;;;32.65;21.27;;;;;;;5.82;100.00;101719.00;4975733;28;20101;-72
2021/12/18 04:22:39;;;;;;;36.08;23.17;;;;;;;5.38;100.00;101732.84;4975839;28;20078;-72
2021/12/18 04:25:25;;;;;;;35.60;21.63;;;;;;;5.48;100.00;101737.41;4975412;28;20038;-72
2021/12/18 04:28:11;;;;;;;35.28;21.48;;;;;;;5.43;100.00;101730.34;4976004;28;20105;-71
2021/12/18 04:30:57;;;;;;;42.63;22.80;;;;;;;5.32;100.00;101731.00;4975975;28;20038;-72
2021/12/18 04:33:43;;;;;;;42.42;24.38;;;;;;;5.27;100.00;101735.25;4975465;28;20023;-73
2021/12/18 04:36:29;;;;;;;45.00;25.42;;;;;;;5.51;100.00;101739.16;4979245;28;20474;-73
2021/12/18 04:39:15;;;;;;;40.65;23.25;;;;;;;5.25;100.00;101743.84;4979181;28;20089;-72
2021/12/18 04:42:01;;;;;;;42.97;24.55;;;;;;;5.13;100.00;101748.78;4979495;28;20089;-72
2021/12/18 04:44:47;;;;;;;36.92;20.73;;;;;;;5.00;100.00;101739.00;4965416;28;20031;-72
2021/12/18 04:47:33;;;;;;;40.55;24.92;;;;;;;5.17;100.00;101742.81;4979999;28;20031;-72
2021/12/18 04:50:19;;;;;;;38.30;23.67;;;;;;;5.51;100.00;101742.66;4979075;28;20092;-73
2021/12/18 04:53:05;;;;;;;35.40;22.08;;;;;;;5.38;100.00;101751.03;4979256;28;20030;-72
2021/12/18 04:55:51;;;;;;;37.47;22.63;;;;;;;5.51;100.00;101758.25;4965285;28;20038;-73
2021/12/18 04:58:37;;;;;;;37.92;23.02;;;;;;;5.39;100.00;101753.66;4979022;28;20345;-72
2021/12/18 05:01:22;;;;;;;35.33;22.67;;;;;;;5.43;100.00;101758.94;4965428;28;20038;-73
2021/12/18 05:04:11;;;;;;;35.65;21.38;;;;;;;5.63;100.00;101760.19;4979403;28;20114;-72
2021/12/18 05:06:56;;;;;;;35.78;22.75;;;;;;;5.51;100.00;101760.84;4978851;28;20102;-71
2021/12/18 05:09:42;;;;;;;33.80;21.15;;;;;;;5.43;100.00;101760.69;4978816;28;20023;-72
2021/12/18 05:12:28;;;;;;;36.72;22.70;;;;;;;5.68;100.00;101777.66;4978685;28;20109;-73
2021/12/18 05:15:13;;;;;;;31.23;20.23;;;;;;;5.69;100.00;101778.50;4978473;28;20357;-71
2021/12/18 05:17:59;;;;;;;29.98;19.20;;;;;;;5.46;100.00;101785.00;4964921;28;20058;-72
2021/12/18 05:20:45;;;;;;;32.03;19.90;;;;;;;4.91;100.00;101791.59;4978478;28;20038;-72
2021/12/18 05:23:31;;;;;;;36.42;22.33;;;;;;;4.52;100.00;101795.00;4964447;28;20026;-74
2021/12/18 05:26:17;;;;;;;38.05;22.55;;;;;;;4.26;100.00;101804.75;4978237;28;20045;-73
2021/12/18 05:29:03;;;;;;;35.00;21.95;;;;;;;3.98;100.00;101807.47;4978344;28;20027;-71
2021/12/18 05:31:49;;;;;;;34.95;20.75;;;;;;;3.83;100.00;101812.25;4978433;28;20062;-72
2021/12/18 05:34:37;;;;;;;38.47;22.73;;;;;;;3.90;100.00;101808.97;4978347;28;20033;-73
2021/12/18 05:37:45;;;;;;;36.22;22.13;;;;;;;3.73;100.00;101814.53;4978696;28;20031;-72
2021/12/18 05:40:33;;;;;;;36.75;21.70;;;;;;;3.54;100.00;101810.56;4964742;28;20089;-72
2021/12/18 05:43:18;;;;;;;35.85;21.58;;;;;;;3.70;100.00;101802.38;4964507;28;20518;-73
2021/12/18 05:46:04;;;;;;;37.58;21.90;;;;;;;3.85;100.00;101801.91;4977123;28;20030;-72
2021/12/18 05:48:50;;;;;;;36.78;21.25;;;;;;;3.73;100.00;101807.66;4964695;28;20414;-72
2021/12/18 05:51:37;;;;;;;38.42;22.23;;;;;;;3.84;100.00;101810.53;4977919;28;20460;-72
2021/12/18 05:54:23;;;;;;;37.35;22.77;;;;;;;3.82;100.00;101809.63;4978216;28;20077;-71
2021/12/18 05:57:14;;;;;;;38.00;23.48;;;;;;;3.78;100.00;101816.41;4963618;28;20125;-72
2021/12/18 06:00:00;;;;;;;40.22;24.27;;;;;;;3.53;100.00;101828.66;4978022;28;20023;-70
2021/12/18 06:02:47;;;;;;;39.20;23.95;;;;;;;3.96;100.00;101842.84;4977849;28;20530;-71
2021/12/18 06:05:33;;;;;;;38.42;22.55;;;;;;;3.82;100.00;101843.31;4978337;28;20027;-71
2021/12/18 06:08:19;;;;;;;36.88;21.13;;;;;;;3.85;100.00;101846.88;4977684;28;20050;-72
2021/12/18 06:11:11;;;;;;;32.90;19.05;;;;;;;3.66;100.00;101851.50;4964363;28;20031;-73
2021/12/18 06:13:57;;;;;;;31.55;18.17;;;;;;;3.65;100.00;101867.88;4977489;28;20031;-72
2021/12/18 06:16:43;;;;;;;29.88;17.65;;;;;;;3.77;100.00;101878.56;4977922;28;20190;-71
2021/12/18 06:19:29;;;;;;;27.38;17.98;;;;;;;4.19;100.00;101879.78;4977541;28;20038;-71
2021/12/18 06:22:14;;;;;;;28.48;16.98;;;;;;;4.37;100.00;101882.84;4964120;28;20109;-73
2021/12/18 06:25:00;;;;;;;25.80;16.63;;;;;;;4.73;100.00;101889.84;4964310;28;20022;-71
2021/12/18 06:27:46;;;;;;;27.65;16.35;;;;;;;4.41;100.00;101900.22;4977290;28;20114;-72
2021/12/18 06:30:32;;;;;;;27.13;15.68;;;;;;;4.62;100.00;101904.25;4977705;28;20039;-73
2021/12/18 06:33:18;;;;;;;25.02;15.55;;;;;;;4.69;100.00;101906.19;4962380;28;20026;-72
2021/12/18 06:36:05;;;;;;;26.85;16.38;;;;;;;4.81;100.00;101911.69;4963720;28;20100;-72
2021/12/18 06:38:50;;;;;;;30.83;18.67;;;;;;;4.91;100.00;101923.16;4963292;28;20052;-71
2021/12/18 06:41:36;;;;;;;32.70;20.05;;;;;;;4.59;100.00;101919.75;4977492;28;20023;-72
2021/12/18 06:44:22;;;;;;;37.17;22.33;;;;;;;4.66;100.00;101932.06;4963399;28;20062;-72
2021/12/18 06:47:08;;;;;;;29.42;19.88;;;;;;;4.58;100.00;101928.38;4963424;28;20335;-73
2021/12/18 06:49:54;;;;;;;33.35;19.35;;;;;;;5.24;100.00;101923.97;4976800;28;20034;-72
2021/12/18 06:52:40;;;;;;;30.85;19.65;;;;;;;5.29;100.00;101925.81;4977197;28;20035;-72
2021/12/18 06:55:26;;;;;;;29.98;18.95;;;;;;;5.43;100.00;101933.06;4976712;28;20066;-73
2021/12/18 06:58:12;;;;;;;32.88;19.92;;;;;;;5.41;100.00;101935.63;4976967;28;20018;-73
2021/12/18 07:00:58;;;;;;;32.95;20.13;;;;;;;5.84;100.00;101940.06;4976999;28;20045;-73
2021/12/18 07:15:12;;;;;;;25.27;15.85;;;;;;;4.46;100.00;101933.25;5599730;23;20368;-74
2021/12/18 07:17:58;;;;;;;24.50;14.43;;;;;;;4.44;100.00;101944.44;4976728;28;20349;-74
2021/12/18 07:20:43;;;;;;;25.67;16.40;;;;;;;4.52;100.00;101958.50;4976485;28;20050;-74
2021/12/18 07:23:29;;;;;;;17.08;10.32;;;;;;;4.76;100.00;101948.75;4962799;28;20022;-71
2021/12/18 07:26:15;;;;;;;13.35;8.63;;;;;;;4.78;100.00;101954.84;4976204;28;20034;-73
2021/12/18 07:29:01;;;;;;;12.40;7.38;;;;;;;4.56;100.00;101953.44;4961599;28;20019;-72
2021/12/18 07:31:47;;;;;;;12.73;8.45;;;;;;;4.42;100.00;101952.16;4975114;28;20045;-72
2021/12/18 07:34:33;;;;;;;15.38;9.68;;;;;;;4.74;100.00;101959.09;4976480;28;20337;-73
2021/12/18 07:37:18;;;;;;;16.38;9.45;;;;;;;4.82;100.00;101967.94;4974947;28;20436;-72
2021/12/18 07:40:06;;;;;;;17.05;10.52;;;;;;;4.98;100.00;101959.69;4976690;28;20035;-72
2021/12/18 07:42:52;;;;;;;17.60;11.07;;;;;;;5.12;100.00;101954.84;4962943;28;20027;-72
2021/12/18 07:45:38;;;;;;;20.92;10.63;;;;;;;4.94;100.00;101956.97;4976358;28;20026;-73
2021/12/18 07:48:24;;;;;;;28.35;11.95;;;;;;;4.81;100.00;101963.59;4976169;28;20041;-73
2021/12/18 07:51:10;;;;;;;32.22;12.98;;;;;;;4.88;100.00;101960.34;4962175;28;20085;-73
2021/12/18 07:53:56;;;;;;;27.20;11.70;;;;;;;5.08;100.00;101953.91;4962785;28;20030;-72
2021/12/18 07:56:42;;;;;;;25.70;11.57;;;;;;;4.91;100.00;101956.94;4975739;28;20102;-72
2021/12/18 07:59:28;;;;;;;22.45;11.77;;;;;;;5.18;100.00;101955.88;4975754;28;20372;-72
2021/12/18 08:02:16;;;;;;;22.67;11.52;;;;;;;5.29;100.00;101958.72;4975676;28;20027;-71
2021/12/18 08:05:03;;;;;;;25.05;13.45;;;;;;;5.46;100.00;101956.53;4976351;28;20458;-71
2021/12/18 08:07:49;;;;;;;24.20;15.52;;;;;;;5.14;100.00;101967.03;4975674;28;20027;-73
2021/12/18 08:10:34;;;;;;;24.73;15.27;;;;;;;5.40;100.00;101973.69;4974711;28;20101;-73
2021/12/18 08:13:20;;;;;;;15.55;8.88;;;;;;;5.87;100.00;101981.75;4976400;28;20460;-71
2021/12/18 08:16:06;;;;;;;15.98;8.98;;;;;;;5.96;100.00;101976.72;4975987;28;20487;-74
2021/12/18 08:18:52;;;;;;;13.80;7.30;;;;;;;6.36;100.00;101985.38;4975927;28;20117;-73
2021/12/18 08:21:38;;;;;;;15.23;7.32;;;;;;;6.66;100.00;102006.78;4975555;28;20015;-73
2021/12/18 08:24:23;;;;;;;12.20;7.00;;;;;;;7.20;100.00;102004.28;4975542;28;20345;-72
2021/12/18 08:27:09;;;;;;;14.55;6.28;;;;;;;7.06;100.00;102000.56;4975413;28;20030;-73
2021/12/18 08:29:55;;;;;;;10.45;6.40;;;;;;;7.72;100.00;101999.03;4962134;28;20031;-72
2021/12/18 08:32:43;;;;;;;9.48;6.00;;;;;;;7.35;100.00;102000.19;4975290;28;20039;-72
2021/12/18 08:35:30;;;;;;;11.15;6.97;;;;;;;7.74;100.00;101998.19;4975445;28;20035;-71
2021/12/18 08:38:19;;;;;;;8.20;5.78;;;;;;;8.26;100.00;102007.63;4961758;28;20031;-72
2021/12/18 08:41:05;;;;;;;8.05;5.20;;;;;;;7.50;100.00;102010.88;4975564;28;20038;-72
2021/12/18 08:43:51;;;;;;;7.43;5.10;;;;;;;7.88;100.00;102009.69;4975824;28;20065;-72
2021/12/18 08:46:40;;;;;;;8.07;5.20;;;;;;;8.27;100.00;102014.59;4975185;28;20027;-71
2021/12/18 08:49:29;;;;;;;9.05;5.38;;;;;;;8.55;100.00;102008.84;4975590;28;20023;-72
2021/12/18 08:52:15;;;;;;;8.30;5.10;;;;;;;9.09;100.00;102010.25;4975810;28;20077;-72
2021/12/18 08:55:02;;;;;;;8.73;5.10;;;;;;;8.75;100.00;102018.66;4975818;28;20050;-73
2021/12/18 09:01:30;;;;;;;8.45;4.85;;;;;;;8.39;100.00;102013.00;4975023;28;20023;-71
2021/12/18 09:04:16;;;;;;;8.10;4.80;;;;;;;8.18;100.00;102010.09;4976400;28;20054;-71
2021/12/18 09:07:02;;;;;;;13.32;8.82;;;;;;;8.67;100.00;102016.81;4960787;28;20030;-72
2021/12/18 09:09:48;;;;;;;9.13;5.90;;;;;;;8.37;100.00;102017.31;4975608;28;20448;-71
2021/12/18 09:12:34;;;;;;;10.15;6.25;;;;;;;7.75;100.00;102009.47;4975090;28;20030;-73
2021/12/18 09:15:20;;;;;;;7.90;5.22;;;;;;;7.34;100.00;102018.41;4973575;28;20142;-73
2021/12/18 09:18:06;;;;;;;9.35;6.10;;;;;;;7.65;100.00;102008.50;4975395;28;20030;-73
2021/12/18 09:20:52;;;;;;;10.23;5.93;;;;;;;7.42;100.00;102016.81;4976066;28;20352;-72
2021/12/18 09:23:38;;;;;;;10.25;5.95;;;;;;;7.26;100.00;102020.00;4977914;28;20556;-74
2021/12/18 09:26:24;;;;;;;10.80;6.75;;;;;;;7.44;100.00;102017.72;4979070;28;20085;-72
2021/12/18 09:29:10;;;;;;;17.33;9.98;;;;;;;8.27;100.00;102020.69;4978835;28;20110;-73
2021/12/18 09:31:56;;;;;;;10.40;6.80;;;;;;;8.26;100.00;102015.44;4978412;28;20062;-72
2021/12/18 09:34:41;;;;;;;10.73;6.57;;;;;;;8.33;100.00;102018.16;4978792;28;20027;-72
2021/12/18 09:37:27;;;;;;;11.63;6.13;;;;;;;8.27;100.00;102017.19;4978336;28;20050;-72
2021/12/18 09:40:14;;;;;;;8.15;5.68;;;;;;;8.13;100.00;102013.50;4978799;28;20057;-71
2021/12/18 09:42:59;;;;;;;14.82;8.05;;;;;;;8.28;100.00;102008.53;4977540;28;20037;-73
2021/12/18 09:45:46;;;;;;;8.88;5.30;;;;;;;8.44;100.00;102005.25;4978016;28;20093;-72
2021/12/18 09:48:33;;;;;;;7.90;4.70;;;;;;;7.58;100.00;102018.78;4978403;28;20030;-72
2021/12/18 09:51:24;;;;;;;7.43;4.63;;;;;;;7.20;100.00;102018.19;4977813;28;20129;-71
2021/12/18 09:54:11;;;;;;;8.52;4.15;;;;;;;7.42;100.00;102008.97;4978560;28;20026;-73
2021/12/18 09:56:56;;;;;;;12.30;6.03;;;;;;;7.23;100.00;102022.59;4977847;28;20042;-73
2021/12/18 09:59:42;;;;;;;8.13;4.38;;;;;;;7.37;100.00;102021.97;4978340;28;20031;-72
2021/12/18 10:02:28;;;;;;;7.50;3.42;;;;;;;7.48;100.00;102022.13;4977723;28;20109;-72
2021/12/18 10:05:31;;;;;;;4.57;3.10;;;;;;;7.65;100.00;102016.31;4977302;28;20541;-71
2021/12/18 10:08:19;;;;;;;6.93;3.67;;;;;;;7.60;100.00;102012.75;4977788;28;20093;-72
2021/12/18 10:11:07;;;;;;;5.75;3.05;;;;;;;7.37;100.00;102014.16;4977850;28;20038;-74
2021/12/18 10:13:59;;;;;;;8.25;3.50;;;;;;;7.66;100.00;102006.75;4977857;28;20037;-72
2021/12/18 10:16:51;;;;;;;7.47;3.60;;;;;;;7.76;100.00;102006.03;4977643;28;20472;-73
2021/12/18 10:19:39;;;;;;;5.85;3.50;;;;;;;7.73;100.00;102000.78;4977448;28;20114;-73
2021/12/18 10:22:24;;;;;;;9.48;3.85;;;;;;;8.28;100.00;102003.31;4961667;28;20446;-72
2021/12/18 10:25:12;;;;;;;3.88;2.38;;;;;;;7.58;100.00;102000.53;4977814;28;20068;-71
2021/12/18 10:28:21;;;;;;;5.80;2.72;;;;;;;7.64;100.00;102004.13;4977456;28;20030;-71
2021/12/18 10:31:07;;;;;;;6.05;2.75;;;;;;;8.52;100.00;101995.75;4977225;28;20444;-73
2021/12/18 10:34:14;;;;;;;5.43;3.20;;;;;;;8.51;100.00;102007.03;4976690;28;20062;-72
2021/12/18 10:37:11;;;;;;;6.93;2.50;;;;;;;8.54;100.00;102007.09;4978173;28;20027;-73
2021/12/18 10:39:59;;;;;;;3.33;2.35;;;;;;;8.50;97.20;102005.31;4977009;28;20027;-71
2021/12/18 10:42:46;;;;;;;9.27;2.80;;;;;;;8.59;100.00;101997.56;4963573;28;20035;-72
2021/12/18 10:45:35;;;;;;;4.53;2.30;;;;;;;7.76;100.00;102000.81;4977444;28;20027;-73
2021/12/18 10:48:21;;;;;;;7.40;2.95;;;;;;;7.79;100.00;102006.06;4977240;28;20478;-72
2021/12/18 10:51:06;;;;;;;8.93;3.30;;;;;;;7.82;100.00;101995.69;4977284;28;20094;-72
2021/12/18 10:53:58;;;;;;;7.43;3.10;;;;;;;7.62;100.00;101997.13;4976856;28;20481;-73
2021/12/18 10:56:47;;;;;;;8.57;3.03;;;;;;;7.29;100.00;101994.91;4976804;28;20104;-73
2021/12/18 10:59:36;;;;;;;10.40;3.00;;;;;;;7.07;100.00;101999.72;4962747;28;20023;-72
2021/12/18 11:02:21;;;;;;;8.23;3.13;;;;;;;7.58;100.00;101992.72;4977074;28;20539;-71
2021/12/18 11:10:53;;;;;;;4.75;3.08;;;;;;;7.57;100.00;101990.97;4955597;29;20114;-72
2021/12/18 11:13:41;;;;;;;7.03;2.95;;;;;;;7.28;100.00;101995.72;4956510;29;20368;-72
2021/12/18 11:16:28;;;;;;;4.78;3.03;;;;;;;7.33;100.00;101988.00;4955773;28;20376;-72
2021/12/18 11:19:16;;;;;;;5.18;3.05;;;;;;;7.67;100.00;101985.91;4943949;29;20392;-71
2021/12/18 11:22:05;;;;;;;5.70;3.45;;;;;;;7.96;100.00;101989.78;4957549;29;20335;-73
2021/12/18 11:25:01;;;;;;;8.40;3.83;;;;;;;8.54;100.00;101988.81;4957363;29;20035;-73
2021/12/18 11:27:48;;;;;;;4.90;3.22;;;;;;;7.88;100.00;101987.94;4957039;29;20058;-73
2021/12/18 11:30:34;;;;;;;7.00;2.92;;;;;;;8.17;100.00;101983.97;4957746;29;20094;-73
2021/12/18 11:33:20;;;;;;;11.95;3.05;;;;;;;8.03;100.00;101981.19;4956750;29;20178;-73
2021/12/18 11:36:07;;;;;;;16.40;5.13;;;;;;;8.29;100.00;101987.66;4956747;28;20027;-73
2021/12/18 11:38:54;;;;;;;7.05;3.90;;;;;;;7.63;100.00;101994.53;4942065;29;20027;-73
2021/12/18 11:41:45;;;;;;;5.25;3.08;;;;;;;8.10;100.00;101989.97;4956841;29;20110;-72
2021/12/18 11:44:36;;;;;;;7.07;3.22;;;;;;;7.84;100.00;101994.00;4955787;28;20035;-73
2021/12/18 11:47:34;;;;;;;4.20;3.05;;;;;;;8.20;100.00;101992.72;4956598;28;20037;-72
2021/12/18 11:54:03;;;;;;;6.93;4.20;;;;;;;7.95;100.00;101997.59;4956377;29;20028;-73
2021/12/18 11:56:51;;;;;;;9.52;4.35;;;;;;;8.89;100.00;102001.34;4956487;28;20031;-73
2021/12/18 11:59:42;;;;;;;3.03;2.40;;;;;;;7.72;100.00;102006.84;4956836;29;20023;-71
2021/12/18 12:02:47;;;;;;;4.85;3.15;;;;;;;7.20;100.00;102004.28;4942895;29;20088;-73
2021/12/18 12:05:38;;;;;;;7.63;3.08;;;;;;;7.62;100.00;102000.63;4957033;28;20067;-73
2021/12/18 12:08:38;;;;;;;6.57;3.70;;;;;;;7.37;100.00;102003.72;4956115;29;20059;-73
2021/12/18 12:11:28;;;;;;;9.43;3.80;;;;;;;8.11;100.00;102008.28;4956446;29;20031;-72
2021/12/18 12:14:14;;;;;;;9.32;3.78;;;;;;;8.15;100.00;102012.66;4942746;29;20038;-73
2021/12/18 12:17:03;;;;;;;6.80;3.50;;;;;;;8.26;100.00;102003.28;4956621;28;20049;-72
2021/12/18 12:19:53;;;;;;;9.15;3.03;;;;;;;8.21;100.00;102009.31;4956420;29;20110;-74
2021/12/18 12:22:42;;;;;;;7.97;2.88;;;;;;;8.25;100.00;102001.53;4941116;29;20058;-72
2021/12/18 12:25:41;;;;;;;4.63;3.42;;;;;;;8.44;100.00;102002.63;4955981;28;20415;-73
2021/12/18 12:28:26;;;;;;;4.53;2.97;;;;;;;8.05;100.00;102009.94;4956914;29;20487;-72
2021/12/18 12:31:14;;;;;;;6.30;3.50;;;;;;;7.83;100.00;102008.75;4956007;29;20042;-73
2021/12/18 12:34:24;;;;;;;5.30;3.53;;;;;;;7.77;100.00;102003.47;4956249;29;20031;-72
2021/12/18 12:37:34;;;;;;;6.47;3.47;;;;;;;8.24;100.00;102001.53;4956446;28;20358;-72
2021/12/18 12:40:32;;;;;;;9.02;3.65;;;;;;;8.48;100.00;101994.84;4956488;29;20523;-74
2021/12/18 12:43:26;;;;;;;10.43;4.00;;;;;;;8.32;100.00;101997.25;4940213;29;20039;-74
2021/12/18 12:46:16;;;;;;;6.65;3.80;;;;;;;8.34;100.00;102001.66;4955975;28;20035;-74
2021/12/18 12:49:08;;;;;;;8.13;3.45;;;;;;;8.17;100.00;101999.66;4955968;29;20027;-72
2021/12/18 12:51:57;;;;;;;5.28;3.08;;;;;;;7.90;100.00;101994.06;4955890;29;20024;-72
2021/12/18 12:54:54;;;;;;;6.70;3.50;;;;;;;7.95;100.00;102002.81;4942984;29;20024;-73
2021/12/18 12:58:01;;;;;;;7.65;3.00;;;;;;;7.86;100.00;102006.19;4959707;29;20038;-72
2021/12/18 13:00:51;;;;;;;6.45;2.83;;;;;;;7.83;100.00;101998.31;4960179;29;20027;-73
2021/12/18 13:03:45;;;;;;;4.53;2.60;;;;;;;6.92;100.00;102012.47;4958469;29;20023;-72
2021/12/18 13:06:30;;;;;;;6.10;3.30;;;;;;;7.34;100.00;102014.09;4959730;28;20030;-73
2021/12/18 13:09:16;;;;;;;8.25;3.50;;;;;;;7.69;100.00;102012.03;4959566;29;20457;-73
2021/12/18 13:12:05;;;;;;;7.72;3.53;;;;;;;7.82;100.00;102009.63;4959875;29;20027;-73
2021/12/18 13:14:52;;;;;;;5.82;3.20;;;;;;;7.70;100.00;102009.44;4959507;29;20062;-73
2021/12/18 13:17:38;;;;;;;6.95;2.95;;;;;;;7.41;100.00;102008.13;4959975;28;20043;-72
2021/12/18 13:20:23;;;;;;;9.50;4.47;;;;;;;7.87;100.00;102013.16;4959911;28;20069;-73
2021/12/18 13:23:14;;;;;;;20.20;7.65;;;;;;;7.95;100.00;102005.41;4959534;29;20117;-74
2021/12/18 13:25:59;;;;;;;7.15;3.53;;;;;;;7.85;100.00;102007.06;4959114;28;20368;-71
2021/12/18 13:29:10;;;;;;;12.27;3.78;;;;;;;8.21;100.00;102011.91;4959687;29;20042;-73
2021/12/18 13:31:58;;;;;;;8.63;3.30;;;;;;;7.32;100.00;102001.88;4959504;28;20520;-73
2021/12/18 13:34:44;;;;;;;4.55;3.25;;;;;;;7.29;100.00;102012.25;4959273;29;20456;-72
2021/12/18 13:37:30;;;;;;;7.15;3.72;;;;;;;7.63;100.00;102004.13;4959634;28;20106;-72
2021/12/18 13:40:16;;;;;;;9.95;4.63;;;;;;;7.88;100.00;102006.22;4959437;29;20041;-72
2021/12/18 13:43:06;;;;;;;8.18;3.83;;;;;;;7.85;100.00;102016.59;4959439;29;20351;-74
2021/12/18 13:46:06;;;;;;;6.15;3.95;;;;;;;7.95;100.00;102019.38;4958837;28;20031;-73
2021/12/18 13:48:52;;;;;;;16.10;6.15;;;;;;;8.07;100.00;102026.47;4959818;28;20095;-73
2021/12/18 13:51:38;;;;;;;8.38;5.30;;;;;;;8.10;100.00;102031.75;4958489;29;20066;-73
2021/12/18 13:54:24;;;;;;;11.27;5.25;;;;;;;8.17;100.00;102026.63;4945482;29;20152;-71